Time;durP1;ratioP1;P1;durP2;ratioP2;P2;SDS_P1;SDS_P2;PMS_P1;PMS_P2;Temp;Humidity;BMP_temperature;BMP_pressure;BME280_temperature;BME280_humidity;BME280_pressure;Samples;Min_cycle;Max_cycle;Signal;HPM_P1;HPM_P2
2023/04/10 00:01:37;;;;;;;63.67;44.00;;;7.70;99.90;;;;;;5056169;28;20080;-73
2023/04/10 00:04:04;;;;;;;62.27;44.33;;;7.70;99.90;;;;;;5056648;28;20468;-73
2023/04/10 00:06:31;;;;;;;63.07;44.80;;;7.70;99.90;;;;;;5055202;28;20422;-73
2023/04/10 00:08:59;;;;;;;64.67;43.93;;;7.70;99.90;;;;;;5057044;28;20060;-74
2023/04/10 00:11:26;;;;;;;65.43;45.43;;;7.70;99.90;;;;;;5057856;28;20124;-73
2023/04/10 00:13:52;;;;;;;62.37;44.47;;;7.60;99.90;;;;;;5056992;28;20575;-73
2023/04/10 00:16:19;;;;;;;60.33;44.07;;;7.60;99.90;;;;;;5057312;28;20068;-73
2023/04/10 00:18:45;;;;;;;63.60;44.47;;;7.60;99.90;;;;;;5057144;28;20045;-73
2023/04/10 00:21:11;;;;;;;64.17;45.37;;;7.60;99.90;;;;;;5056164;28;20049;-73
2023/04/10 00:23:37;;;;;;;65.43;45.60;;;7.60;99.90;;;;;;5057188;28;20366;-74
2023/04/10 00:26:03;;;;;;;69.00;46.23;;;7.60;99.90;;;;;;5053962;28;20510;-72
2023/04/10 00:28:29;;;;;;;65.27;46.23;;;7.50;99.90;;;;;;5057065;28;20056;-73
2023/04/10 00:30:54;;;;;;;65.07;46.30;;;7.50;99.90;;;;;;5056012;28;20040;-73
2023/04/10 00:33:20;;;;;;;64.90;45.33;;;7.50;99.90;;;;;;5055540;28;20056;-73
2023/04/10 00:35:46;;;;;;;64.33;45.30;;;7.50;99.90;;;;;;5056544;28;20049;-72
2023/04/10 00:38:12;;;;;;;68.70;48.30;;;7.50;99.90;;;;;;5054807;28;20663;-73
2023/04/10 00:40:37;;;;;;;64.73;46.67;;;7.40;99.90;;;;;;5055257;28;20389;-73
2023/04/10 00:43:03;;;;;;;67.63;48.93;;;7.40;99.90;;;;;;5055876;28;20049;-73
2023/04/10 00:45:29;;;;;;;71.33;49.17;;;7.40;99.90;;;;;;5055912;28;21128;-73
2023/04/10 00:47:56;;;;;;;73.73;51.67;;;7.40;99.90;;;;;;5053784;28;20063;-73
2023/04/10 00:50:22;;;;;;;71.60;51.50;;;7.40;99.90;;;;;;5054218;28;20057;-73
2023/04/10 00:52:48;;;;;;;71.17;50.33;;;7.40;99.90;;;;;;5055614;28;20045;-73
2023/04/10 00:55:14;;;;;;;71.77;52.17;;;7.30;99.90;;;;;;5037913;28;20388;-72
2023/04/10 00:57:45;;;;;;;73.07;52.00;;;7.30;99.90;;;;;;5056021;28;20040;-73
2023/04/10 01:00:13;;;;;;;74.07;52.70;;;7.30;99.90;;;;;;5054139;28;20057;-73
2023/04/10 01:02:38;;;;;;;71.30;51.63;;;7.20;99.90;;;;;;5055923;28;20060;-73
2023/04/10 01:05:05;;;;;;;71.73;51.90;;;7.20;99.90;;;;;;5055487;28;20045;-73
2023/04/10 01:07:55;;;;;;;71.50;52.40;;;7.20;99.90;;;;;;5056510;28;20064;-75
2023/04/10 01:10:33;;;;;;;75.47;55.87;;;7.20;99.90;;;;;;5055713;28;20041;-72
2023/04/10 01:13:12;;;;;;;74.80;53.83;;;7.20;99.90;;;;;;5055692;28;20080;-72
2023/04/10 01:15:48;;;;;;;75.00;54.17;;;7.10;99.90;;;;;;5056378;28;20053;-73
2023/04/10 01:18:35;;;;;;;80.07;56.23;;;7.20;99.90;;;;;;5055377;28;20141;-71
2023/04/10 01:21:04;;;;;;;76.80;54.83;;;7.20;99.90;;;;;;5045537;28;20096;-73
2023/04/10 01:23:55;;;;;;;77.03;56.53;;;7.20;99.90;;;;;;5055498;28;20049;-73
2023/04/10 01:26:35;;;;;;;77.80;55.90;;;7.20;99.90;;;;;;5052489;28;20053;-73
2023/04/10 01:29:05;;;;;;;77.40;55.73;;;7.20;99.90;;;;;;5055933;28;20108;-72
2023/04/10 01:31:43;;;;;;;78.60;57.13;;;7.10;99.90;;;;;;5056037;28;20083;-72
2023/04/10 01:34:15;;;;;;;81.10;57.63;;;7.10;99.90;;;;;;5054353;28;20033;-73
2023/04/10 01:37:07;;;;;;;76.40;59.22;;;7.10;99.90;;;;;;5055462;28;20049;-73
2023/04/10 01:39:38;;;;;;;80.83;59.57;;;7.10;99.90;;;;;;5047692;28;20045;-73
2023/04/10 01:42:06;;;;;;;78.80;58.13;;;7.10;99.90;;;;;;5054244;28;20049;-73
2023/04/10 01:44:35;;;;;;;81.00;60.03;;;7.10;99.90;;;;;;5055530;28;20049;-73
2023/04/10 01:47:06;;;;;;;78.23;57.23;;;7.00;99.90;;;;;;5054603;28;20079;-73
2023/04/10 01:49:33;;;;;;;77.80;57.33;;;7.00;99.90;;;;;;5054644;28;20060;-74
2023/04/10 01:52:00;;;;;;;79.87;58.83;;;7.00;99.90;;;;;;5053172;28;20050;-73
2023/04/10 01:54:32;;;;;;;81.00;58.90;;;7.00;99.90;;;;;;5053816;28;20056;-73
2023/04/10 01:56:59;;;;;;;82.97;58.70;;;7.00;99.90;;;;;;5054140;28;20088;-73
2023/04/10 01:59:25;;;;;;;81.83;57.03;;;6.90;99.90;;;;;;5054618;28;20037;-72
2023/04/10 02:01:58;;;;;;;80.97;58.20;;;6.90;99.90;;;;;;5054985;28;20041;-73
2023/04/10 02:04:27;;;;;;;81.70;58.90;;;6.90;99.90;;;;;;5041812;28;20037;-73
2023/04/10 02:07:06;;;;;;;81.27;57.93;;;6.90;99.90;;;;;;5049958;28;20055;-73
2023/04/10 02:09:43;;;;;;;83.77;60.73;;;6.90;99.90;;;;;;5054965;28;20056;-72
2023/04/10 02:12:15;;;;;;;81.67;58.33;;;6.90;99.90;;;;;;5053441;28;20112;-73
2023/04/10 02:14:45;;;;;;;84.90;58.50;;;6.90;99.90;;;;;;5054986;28;20056;-73
2023/04/10 02:17:14;;;;;;;78.30;58.90;;;6.90;99.90;;;;;;5052647;28;20239;-73
2023/04/10 02:19:41;;;;;;;82.53;59.27;;;6.80;99.90;;;;;;5053924;28;20044;-73
2023/04/10 02:22:07;;;;;;;82.37;60.33;;;6.80;99.90;;;;;;5052706;28;20064;-73
2023/04/10 02:24:34;;;;;;;76.73;55.90;;;6.80;99.90;;;;;;5055165;28;20041;-73
2023/04/10 02:27:00;;;;;;;79.43;56.83;;;6.80;99.90;;;;;;5055080;28;20044;-73
2023/04/10 02:29:26;;;;;;;78.30;56.33;;;6.80;99.90;;;;;;5052901;28;20056;-74
2023/04/10 02:31:52;;;;;;;73.10;53.00;;;6.80;99.90;;;;;;5054736;28;20045;-73
2023/04/10 02:34:17;;;;;;;75.43;54.40;;;6.80;99.90;;;;;;5052989;28;20106;-73
2023/04/10 02:36:43;;;;;;;75.83;53.97;;;6.80;99.90;;;;;;5055033;28;20051;-73
2023/04/10 02:39:09;;;;;;;72.60;53.70;;;6.80;99.90;;;;;;5052674;28;20407;-73
2023/04/10 02:41:34;;;;;;;68.50;50.83;;;6.80;99.90;;;;;;5054474;28;20075;-73
2023/04/10 02:44:00;;;;;;;69.73;50.80;;;6.80;99.90;;;;;;5054324;28;20068;-73
2023/04/10 02:46:26;;;;;;;73.97;51.77;;;6.80;99.90;;;;;;5054649;28;20068;-73
2023/04/10 02:48:52;;;;;;;73.90;50.80;;;6.80;99.90;;;;;;5056398;28;20063;-71
2023/04/10 02:51:18;;;;;;;74.40;52.33;;;6.80;99.90;;;;;;5057778;28;20531;-73
2023/04/10 02:53:44;;;;;;;71.03;49.97;;;6.80;99.90;;;;;;5058411;28;20045;-73
2023/04/10 02:56:11;;;;;;;74.20;50.97;;;6.80;99.90;;;;;;5053978;28;20590;-73
2023/04/10 02:58:38;;;;;;;71.23;50.27;;;6.80;99.90;;;;;;5057079;28;20106;-73
2023/04/10 03:01:06;;;;;;;68.87;49.40;;;6.80;99.90;;;;;;5058107;28;20132;-73
2023/04/10 03:03:32;;;;;;;72.40;50.37;;;6.80;99.90;;;;;;5057971;28;20079;-73
2023/04/10 03:05:57;;;;;;;75.10;52.93;;;6.80;99.90;;;;;;5057848;28;20057;-73
2023/04/10 03:08:23;;;;;;;71.83;51.63;;;6.70;99.90;;;;;;5057303;28;20037;-73
2023/04/10 03:10:49;;;;;;;70.53;51.30;;;6.70;99.90;;;;;;5058451;28;20049;-73
2023/04/10 03:13:15;;;;;;;72.20;52.47;;;6.80;99.90;;;;;;5055986;28;20040;-73
2023/04/10 03:15:41;;;;;;;73.27;52.07;;;6.70;99.90;;;;;;5056968;28;20049;-73
2023/04/10 03:18:08;;;;;;;71.07;50.70;;;6.70;99.90;;;;;;5056690;28;20037;-73
2023/04/10 03:20:35;;;;;;;72.57;51.10;;;6.70;99.90;;;;;;5057840;28;20049;-72
2023/04/10 03:23:02;;;;;;;73.73;52.47;;;6.70;99.90;;;;;;5058063;28;20141;-74
2023/04/10 03:25:30;;;;;;;70.90;49.37;;;6.70;99.90;;;;;;5071716;28;20102;-74
2023/04/10 03:27:56;;;;;;;77.57;52.40;;;6.70;99.90;;;;;;5057707;28;20105;-73
2023/04/10 03:30:22;;;;;;;72.60;50.17;;;6.60;99.90;;;;;;5057151;28;20069;-73
2023/04/10 03:32:47;;;;;;;75.53;52.80;;;6.60;99.90;;;;;;5058474;28;20128;-73
2023/04/10 03:35:13;;;;;;;72.13;51.70;;;6.60;99.90;;;;;;5055601;28;20045;-74
2023/04/10 03:37:41;;;;;;;73.50;50.87;;;6.60;99.90;;;;;;5058090;28;20041;-72
2023/04/10 03:40:08;;;;;;;72.13;51.10;;;6.60;99.90;;;;;;5057737;28;20041;-74
2023/04/10 03:42:34;;;;;;;71.70;50.57;;;6.60;99.90;;;;;;5055628;28;20060;-74
2023/04/10 03:45:03;;;;;;;73.83;52.33;;;6.50;99.90;;;;;;5057394;28;20033;-72
2023/04/10 03:47:30;;;;;;;70.10;51.00;;;6.50;99.90;;;;;;5055283;28;20113;-72
2023/04/10 03:49:57;;;;;;;74.33;51.00;;;6.40;99.90;;;;;;5057777;28;20153;-72
2023/04/10 03:52:23;;;;;;;72.10;51.70;;;6.40;99.90;;;;;;5056892;28;20057;-73
2023/04/10 03:54:49;;;;;;;70.90;51.20;;;6.40;99.90;;;;;;5057007;28;20087;-73
2023/04/10 03:57:17;;;;;;;73.57;51.37;;;6.40;99.90;;;;;;5057416;28;20540;-72
2023/04/10 03:59:43;;;;;;;73.47;52.13;;;6.30;99.90;;;;;;5056282;28;20077;-73
2023/04/10 04:02:09;;;;;;;73.40;52.17;;;6.30;99.90;;;;;;5054487;28;20055;-73
2023/04/10 04:04:35;;;;;;;69.87;50.77;;;6.30;99.90;;;;;;5056368;28;20045;-73
2023/04/10 04:07:01;;;;;;;71.60;51.53;;;6.30;99.90;;;;;;5056021;28;20041;-73
2023/04/10 04:09:26;;;;;;;71.47;51.67;;;6.30;99.90;;;;;;5055069;28;20091;-74
2023/04/10 04:11:52;;;;;;;75.13;51.17;;;6.30;99.90;;;;;;5055596;28;20037;-73
2023/04/10 04:14:18;;;;;;;72.83;51.83;;;6.30;99.90;;;;;;5055369;28;20154;-73
2023/04/10 04:16:44;;;;;;;72.73;52.73;;;6.30;99.90;;;;;;5056035;28;20052;-73
2023/04/10 04:19:09;;;;;;;68.33;50.00;;;6.30;99.90;;;;;;5056887;28;20044;-73
2023/04/10 04:21:35;;;;;;;73.50;51.83;;;6.30;99.90;;;;;;5055093;28;20052;-73
2023/04/10 04:24:01;;;;;;;71.97;51.93;;;6.30;99.90;;;;;;5055824;28;20045;-73
2023/04/10 04:26:26;;;;;;;73.03;52.10;;;6.30;99.90;;;;;;5054622;28;20139;-72
2023/04/10 04:28:52;;;;;;;73.47;52.17;;;6.20;99.90;;;;;;5055627;28;20040;-73
2023/04/10 04:31:17;;;;;;;73.80;50.93;;;6.30;99.90;;;;;;5054008;28;20070;-73
2023/04/10 04:33:43;;;;;;;72.23;50.60;;;6.20;99.90;;;;;;5052322;28;20045;-73
2023/04/10 04:36:09;;;;;;;69.87;50.60;;;6.20;99.90;;;;;;5056811;28;20068;-74
2023/04/10 04:38:35;;;;;;;68.73;51.80;;;6.20;99.90;;;;;;5056046;28;20040;-73
2023/04/10 04:41:00;;;;;;;75.23;52.87;;;6.20;99.90;;;;;;5055407;28;20044;-73
2023/04/10 04:43:26;;;;;;;71.77;51.77;;;6.20;99.90;;;;;;5053717;28;20053;-73
2023/04/10 04:45:52;;;;;;;71.50;50.73;;;6.20;99.90;;;;;;5056564;28;20044;-73
2023/04/10 04:48:17;;;;;;;71.63;52.33;;;6.20;99.90;;;;;;5054895;28;20057;-73
2023/04/10 04:50:43;;;;;;;73.73;53.73;;;6.20;99.90;;;;;;5054905;28;20076;-74
2023/04/10 04:53:09;;;;;;;73.80;52.17;;;6.20;99.90;;;;;;5020235;28;20120;-76
2023/04/10 04:55:35;;;;;;;74.07;54.10;;;6.20;99.90;;;;;;5053377;28;20053;-75
2023/04/10 04:58:00;;;;;;;70.77;52.10;;;6.20;99.90;;;;;;5055056;28;20417;-75
2023/04/10 05:00:26;;;;;;;75.97;53.13;;;6.20;99.90;;;;;;5053459;28;20055;-75
2023/04/10 05:02:51;;;;;;;80.47;55.83;;;6.20;99.90;;;;;;5053494;28;20041;-75
2023/04/10 05:05:17;;;;;;;77.37;55.60;;;6.20;99.90;;;;;;5051980;28;20064;-75
2023/04/10 05:07:43;;;;;;;79.13;56.40;;;6.20;99.90;;;;;;5053321;28;20084;-75
2023/04/10 05:10:09;;;;;;;81.23;55.80;;;6.20;99.90;;;;;;5053725;28;20064;-75
2023/04/10 05:12:35;;;;;;;78.93;55.87;;;6.30;99.90;;;;;;5052398;28;20122;-75
2023/04/10 05:15:00;;;;;;;78.37;56.37;;;6.30;99.90;;;;;;5051975;28;20037;-75
2023/04/10 05:17:26;;;;;;;79.97;56.20;;;6.30;99.90;;;;;;5054604;28;20044;-74
2023/04/10 05:19:52;;;;;;;74.10;54.33;;;6.40;99.90;;;;;;5053582;28;20141;-75
2023/04/10 05:22:17;;;;;;;79.87;55.27;;;6.50;99.90;;;;;;5054534;28;20049;-75
2023/04/10 05:24:43;;;;;;;76.10;54.73;;;6.60;99.90;;;;;;5036351;28;20116;-75
2023/04/10 05:27:09;;;;;;;81.07;55.33;;;6.70;99.90;;;;;;5054272;28;20577;-75
2023/04/10 05:29:34;;;;;;;81.93;56.10;;;6.80;99.90;;;;;;5054194;28;20052;-77
2023/04/10 05:32:00;;;;;;;76.87;53.37;;;6.90;99.90;;;;;;5054350;28;20056;-77
2023/04/10 05:34:26;;;;;;;78.17;55.10;;;7.00;99.90;;;;;;5053238;28;20185;-76
2023/04/10 05:36:52;;;;;;;76.97;53.70;;;7.00;99.90;;;;;;5053345;28;20125;-76
2023/04/10 05:39:17;;;;;;;85.17;60.80;;;7.10;99.90;;;;;;5052575;28;20044;-75
2023/04/10 05:41:43;;;;;;;81.63;57.17;;;7.20;99.90;;;;;;5054567;28;20056;-76
2023/04/10 05:44:09;;;;;;;84.03;60.10;;;7.30;99.90;;;;;;5052808;28;20067;-76
2023/04/10 05:46:34;;;;;;;80.60;56.10;;;7.40;99.90;;;;;;5052416;28;20104;-76
2023/04/10 05:49:01;;;;;;;79.23;54.80;;;7.40;99.90;;;;;;5052352;28;20040;-77
2023/04/10 05:51:27;;;;;;;80.63;56.37;;;7.50;99.90;;;;;;5052725;28;20071;-76
2023/04/10 05:53:53;;;;;;;82.27;56.40;;;7.50;99.90;;;;;;5054025;28;20052;-76
2023/04/10 05:56:19;;;;;;;78.07;53.60;;;7.60;99.90;;;;;;5052347;28;20075;-76
2023/04/10 05:58:45;;;;;;;79.07;54.50;;;7.60;99.90;;;;;;5053241;28;20076;-76
2023/04/10 06:01:12;;;;;;;77.20;53.87;;;7.70;99.90;;;;;;5053116;28;20104;-75
2023/04/10 06:03:38;;;;;;;80.83;57.07;;;7.80;99.90;;;;;;5053784;28;20130;-76
2023/04/10 06:06:05;;;;;;;79.87;54.20;;;7.90;99.90;;;;;;5044504;28;20053;-76
2023/04/10 06:08:31;;;;;;;76.93;53.57;;;7.90;99.90;;;;;;5053440;28;20041;-76
2023/04/10 06:10:57;;;;;;;75.23;53.63;;;8.00;99.90;;;;;;5051714;28;20136;-76
2023/04/10 06:13:23;;;;;;;71.27;52.07;;;8.00;99.90;;;;;;5049536;28;20114;-76
2023/04/10 06:15:49;;;;;;;71.70;50.73;;;8.10;99.90;;;;;;5051947;28;20068;-75
2023/04/10 06:18:14;;;;;;;73.30;49.73;;;8.20;99.90;;;;;;5052133;28;20053;-76
2023/04/10 06:20:40;;;;;;;73.80;51.87;;;8.30;99.90;;;;;;5051537;28;20044;-76
2023/04/10 06:23:06;;;;;;;73.83;51.23;;;8.40;99.90;;;;;;5053401;28;20056;-75
2023/04/10 06:25:32;;;;;;;72.23;49.63;;;8.50;99.90;;;;;;5056011;28;20059;-73
2023/04/10 06:27:57;;;;;;;72.33;49.97;;;8.60;99.90;;;;;;5039647;28;20056;-73
2023/04/10 06:30:23;;;;;;;73.23;49.47;;;8.80;99.90;;;;;;5056042;28;20684;-73
2023/04/10 06:32:49;;;;;;;68.67;46.43;;;8.90;99.90;;;;;;5059027;28;20080;-73
2023/04/10 06:35:14;;;;;;;67.90;47.10;;;9.00;99.90;;;;;;5040684;28;20492;-71
2023/04/10 06:37:41;;;;;;;67.83;47.20;;;9.10;99.90;;;;;;5040479;28;20041;-77
2023/04/10 06:40:09;;;;;;;61.67;45.10;;;9.20;99.90;;;;;;5057898;28;20136;-76
2023/04/10 06:42:35;;;;;;;65.80;45.00;;;9.30;99.90;;;;;;5058755;28;20073;-76
2023/04/10 06:45:02;;;;;;;65.13;44.90;;;9.30;99.90;;;;;;5055920;28;20050;-77
2023/04/10 06:47:28;;;;;;;63.83;43.97;;;9.40;99.90;;;;;;5058717;28;20049;-76
2023/04/10 06:49:54;;;;;;;68.70;46.27;;;9.40;99.90;;;;;;5056842;28;20045;-76
2023/04/10 06:52:20;;;;;;;62.97;44.93;;;9.50;99.90;;;;;;5055431;28;20109;-76
2023/04/10 06:54:46;;;;;;;62.33;45.10;;;9.50;99.90;;;;;;5051907;28;21001;-76
2023/04/10 06:57:11;;;;;;;67.20;46.03;;;9.50;99.90;;;;;;5058193;28;20109;-77
2023/04/10 06:59:37;;;;;;;63.40;44.07;;;9.50;99.90;;;;;;5061770;28;20070;-76
2023/04/10 07:02:03;;;;;;;63.33;43.27;;;9.60;99.90;;;;;;5055653;28;20041;-77
2023/04/10 07:04:30;;;;;;;63.77;44.77;;;9.60;99.90;;;;;;5054862;28;20136;-76
2023/04/10 07:06:55;;;;;;;60.90;41.00;;;9.60;99.90;;;;;;5056732;28;20071;-76
2023/04/10 07:09:21;;;;;;;60.73;41.77;;;9.60;99.90;;;;;;5054412;28;20037;-76
2023/04/10 07:11:47;;;;;;;57.83;40.53;;;9.60;99.90;;;;;;5056960;28;20037;-76
2023/04/10 07:14:12;;;;;;;57.83;41.10;;;9.60;99.90;;;;;;5055693;28;20431;-76
2023/04/10 07:16:38;;;;;;;58.07;40.43;;;9.60;99.90;;;;;;5055054;28;20043;-76
2023/04/10 07:19:04;;;;;;;60.37;41.20;;;9.60;99.90;;;;;;5054968;28;20351;-75
2023/04/10 07:21:31;;;;;;;56.53;38.67;;;9.60;99.90;;;;;;5036460;28;20060;-76
2023/04/10 07:23:57;;;;;;;56.70;37.80;;;9.70;99.90;;;;;;5054451;28;20108;-76
2023/04/10 07:26:24;;;;;;;54.23;37.97;;;9.70;99.90;;;;;;5054201;28;20435;-75
2023/04/10 07:28:50;;;;;;;54.17;38.17;;;9.80;99.90;;;;;;5053913;28;20128;-75
2023/04/10 07:31:17;;;;;;;51.60;36.67;;;9.90;99.90;;;;;;5036258;28;20061;-76
2023/04/10 07:33:44;;;;;;;53.70;36.87;;;9.90;99.90;;;;;;5053539;28;20546;-76
2023/04/10 07:36:10;;;;;;;55.63;37.60;;;10.00;99.90;;;;;;5052679;28;20106;-76
2023/04/10 07:38:36;;;;;;;55.07;37.20;;;10.00;99.90;;;;;;5053469;28;20040;-76
2023/04/10 07:41:02;;;;;;;55.13;36.90;;;10.10;99.90;;;;;;5055689;28;20037;-76
2023/04/10 07:43:28;;;;;;;54.20;37.80;;;10.20;99.90;;;;;;5052227;28;20044;-77
2023/04/10 07:45:55;;;;;;;51.67;36.60;;;10.20;99.90;;;;;;5052398;28;20056;-75
2023/04/10 07:48:21;;;;;;;51.43;35.67;;;10.30;99.90;;;;;;5051882;28;20053;-76
2023/04/10 07:50:47;;;;;;;55.60;36.90;;;10.40;99.90;;;;;;5068156;28;20041;-76
2023/04/10 07:53:12;;;;;;;53.90;37.17;;;10.60;99.90;;;;;;5052719;28;20048;-76
2023/04/10 07:55:39;;;;;;;51.07;34.23;;;10.80;99.90;;;;;;5053987;28;20037;-77
2023/04/10 07:58:05;;;;;;;48.50;34.77;;;10.90;99.90;;;;;;5020161;28;20040;-76
2023/04/10 08:00:31;;;;;;;50.07;34.23;;;11.00;99.90;;;;;;5053571;28;20033;-76
2023/04/10 08:02:57;;;;;;;49.57;34.13;;;11.20;99.90;;;;;;5068876;28;20122;-77
2023/04/10 08:05:23;;;;;;;49.70;32.60;;;11.30;99.90;;;;;;5069460;28;20049;-76
2023/04/10 08:07:49;;;;;;;46.83;32.07;;;11.40;99.90;;;;;;5053650;28;20068;-76
2023/04/10 08:10:15;;;;;;;49.90;32.10;;;11.50;99.90;;;;;;5051845;28;20037;-76
2023/04/10 08:12:40;;;;;;;46.80;31.33;;;11.70;99.90;;;;;;5054713;28;20041;-76
2023/04/10 08:15:06;;;;;;;44.23;30.80;;;11.80;99.90;;;;;;5052929;28;20144;-76
2023/04/10 08:17:32;;;;;;;41.43;29.20;;;12.00;99.90;;;;;;5020437;28;20076;-76
2023/04/10 08:19:58;;;;;;;42.07;29.43;;;12.10;99.90;;;;;;5055370;28;20222;-76
2023/04/10 08:22:23;;;;;;;42.77;28.33;;;12.20;99.90;;;;;;5054473;28;20052;-76
2023/04/10 08:24:49;;;;;;;39.80;26.93;;;12.30;99.90;;;;;;5052249;28;20037;-74
2023/04/10 08:27:15;;;;;;;39.97;27.87;;;12.50;99.90;;;;;;5057450;28;20513;-75
2023/04/10 08:29:42;;;;;;;39.67;27.17;;;12.60;99.90;;;;;;5035317;28;20057;-76
2023/04/10 08:32:08;;;;;;;37.87;27.90;;;12.80;99.90;;;;;;5057814;28;20032;-75
2023/04/10 08:34:33;;;;;;;36.67;25.83;;;13.00;99.90;;;;;;5052298;28;20049;-75
2023/04/10 08:36:59;;;;;;;39.20;27.07;;;13.00;99.90;;;;;;5038595;28;20029;-76
2023/04/10 08:39:25;;;;;;;37.57;26.33;;;13.10;99.90;;;;;;5058166;28;21093;-76
2023/04/10 08:41:51;;;;;;;37.67;24.13;;;13.10;99.90;;;;;;5053869;28;20053;-76
2023/04/10 08:44:17;;;;;;;38.05;26.67;;;13.10;99.90;;;;;;5054095;28;20395;-76
2023/04/10 08:46:44;;;;;;;33.90;25.95;;;13.20;99.90;;;;;;5053840;28;20079;-76
2023/04/10 08:49:16;;;;;;;36.97;25.43;;;13.10;99.90;;;;;;5055125;28;20607;-75
2023/04/10 08:52:00;;;;;;;35.67;24.80;;;13.10;99.90;;;;;;5054080;28;20510;-76
2023/04/10 08:54:37;;;;;;;35.28;25.30;;;13.10;99.90;;;;;;5053729;28;20079;-76
2023/04/10 08:57:06;;;;;;;35.80;25.60;;;13.20;99.90;;;;;;5054813;28;20092;-75
2023/04/10 08:59:32;;;;;;;38.90;26.20;;;13.30;99.90;;;;;;5055191;28;20564;-76
2023/04/10 09:01:58;;;;;;;38.33;25.90;;;13.40;99.90;;;;;;5052641;28;20132;-76
2023/04/10 09:04:25;;;;;;;35.15;25.33;;;13.40;99.90;;;;;;5053264;28;20634;-75
2023/04/10 09:06:52;;;;;;;39.45;26.75;;;13.30;99.90;;;;;;5053172;28;20084;-75
2023/04/10 09:09:18;;;;;;;34.40;25.83;;;13.30;99.90;;;;;;5057558;28;20135;-75
2023/04/10 09:11:55;;;;;;;35.08;25.90;;;13.40;99.90;;;;;;5054711;28;20080;-75
2023/04/10 09:14:22;;;;;;;37.10;26.30;;;13.50;99.90;;;;;;5054619;28;20048;-77
2023/04/10 09:16:48;;;;;;;35.90;24.73;;;13.70;99.90;;;;;;5053746;28;20120;-76
2023/04/10 09:19:29;;;;;;;39.17;25.23;;;14.00;99.90;;;;;;5055345;28;20555;-76
2023/04/10 09:21:55;;;;;;;31.52;23.35;;;14.00;99.90;;;;;;5051989;28;20136;-77
2023/04/10 09:24:22;;;;;;;34.50;24.55;;;14.00;99.90;;;;;;5054589;28;20051;-77
2023/04/10 09:26:48;;;;;;;37.60;25.40;;;14.10;99.90;;;;;;5052551;28;20488;-77
2023/04/10 09:29:15;;;;;;;36.30;24.23;;;14.30;99.90;;;;;;5052477;28;20105;-77
2023/04/10 09:31:42;;;;;;;33.10;24.98;;;14.50;99.90;;;;;;5053593;28;20284;-77
2023/04/10 09:34:21;;;;;;;35.30;24.02;;;14.60;99.90;;;;;;5055077;28;20041;-76
2023/04/10 09:36:57;;;;;;;33.00;23.70;;;14.80;99.90;;;;;;5049110;28;20488;-76
2023/04/10 09:39:37;;;;;;;46.10;28.92;;;14.90;99.90;;;;;;5054433;28;20510;-76
2023/04/10 09:42:03;;;;;;;31.10;23.75;;;14.90;99.90;;;;;;5054740;28;20489;-76
2023/04/10 09:44:38;;;;;;;30.63;21.92;;;14.80;99.90;;;;;;5052953;28;20057;-79
2023/04/10 09:47:13;;;;;;;32.75;22.63;;;14.80;99.90;;;;;;5052655;28;20053;-76
2023/04/10 09:49:47;;;;;;;32.25;21.98;;;14.80;99.90;;;;;;5053556;28;20047;-76
2023/04/10 09:52:27;;;;;;;31.90;22.63;;;14.80;99.90;;;;;;5053329;28;20777;-76
2023/04/10 09:54:59;;;;;;;29.80;20.48;;;14.80;99.90;;;;;;5070026;28;20044;-76
2023/04/10 09:57:29;;;;;;;28.13;21.65;;;14.80;99.90;;;;;;5035672;28;20190;-76
2023/04/10 09:59:57;;;;;;;27.13;19.88;;;14.70;99.90;;;;;;5067448;28;20033;-76
2023/04/10 10:02:27;;;;;;;27.05;19.00;;;14.80;99.90;;;;;;5070422;28;20475;-76
2023/04/10 10:04:53;;;;;;;25.60;19.63;;;14.80;99.90;;;;;;5053335;28;20053;-76
2023/04/10 10:07:21;;;;;;;28.13;20.25;;;14.80;99.90;;;;;;5057017;28;20408;-76
2023/04/10 10:09:48;;;;;;;26.13;19.02;;;14.90;99.90;;;;;;5053380;28;20045;-76
2023/04/10 10:12:18;;;;;;;27.38;18.77;;;15.00;99.90;;;;;;5053070;28;20053;-75
2023/04/10 10:14:55;;;;;;;22.30;17.17;;;15.10;99.90;;;;;;5054184;28;20037;-76
2023/04/10 10:17:25;;;;;;;23.38;16.23;;;15.30;99.90;;;;;;5052465;28;20239;-76
2023/04/10 10:20:09;;;;;;;21.65;15.70;;;15.40;99.90;;;;;;5053066;28;20474;-76
2023/04/10 10:22:36;;;;;;;21.27;15.65;;;15.40;93.70;;;;;;5051803;28;20037;-76
2023/04/10 10:25:02;;;;;;;18.17;14.60;;;15.40;97.10;;;;;;5053062;28;20046;-76
2023/04/10 10:27:33;;;;;;;20.77;14.60;;;15.50;96.90;;;;;;5050411;28;20049;-76
2023/04/10 10:29:59;;;;;;;22.13;14.02;;;15.60;98.80;;;;;;5052058;28;20059;-76
2023/04/10 10:32:26;;;;;;;24.30;13.13;;;15.80;96.80;;;;;;5050426;28;20049;-77
2023/04/10 10:34:53;;;;;;;20.85;12.65;;;16.00;96.40;;;;;;5051973;28;20055;-76
2023/04/10 10:37:22;;;;;;;15.30;11.75;;;16.10;95.00;;;;;;5052551;28;20060;-76
2023/04/10 10:40:16;;;;;;;17.55;12.13;;;16.10;91.10;;;;;;5049506;28;20049;-76
2023/04/10 10:42:56;;;;;;;15.90;11.45;;;16.20;85.50;;;;;;5050916;28;20591;-77
2023/04/10 10:46:00;;;;;;;13.85;10.73;;;16.10;80.50;;;;;;5063933;28;20045;-76
2023/04/10 10:48:27;;;;;;;11.13;9.77;;;16.00;77.70;;;;;;5032110;28;20053;-76
2023/04/10 10:50:58;;;;;;;12.13;9.40;;;15.90;83.00;;;;;;5044263;28;20045;-74
2023/04/10 10:53:40;;;;;;;13.60;9.80;;;15.90;83.10;;;;;;5051886;28;20041;-75
2023/04/10 10:56:17;;;;;;;13.80;9.95;;;15.90;82.60;;;;;;5052046;28;20048;-76
2023/04/10 10:58:50;;;;;;;13.55;9.30;;;15.90;85.70;;;;;;5053601;28;20041;-75
2023/04/10 11:01:17;;;;;;;12.27;9.32;;;15.90;84.20;;;;;;5053159;28;20060;-76
2023/04/10 11:03:44;;;;;;;11.35;9.07;;;15.90;89.20;;;;;;5051903;28;20411;-76
2023/04/10 11:06:19;;;;;;;12.85;9.32;;;15.90;89.80;;;;;;5053450;28;20049;-76
2023/04/10 11:08:47;;;;;;;20.45;9.40;;;15.80;83.80;;;;;;5056169;28;20048;-76
2023/04/10 11:11:16;;;;;;;11.63;9.50;;;15.60;81.60;;;;;;5061854;28;20044;-75
2023/04/10 11:13:57;;;;;;;12.05;9.10;;;15.60;82.50;;;;;;5055357;28;20065;-76
2023/04/10 11:16:40;;;;;;;10.68;9.10;;;15.60;79.50;;;;;;5054318;28;20056;-76
2023/04/10 11:19:08;;;;;;;11.10;8.75;;;15.60;84.70;;;;;;5050506;28;20036;-75
2023/04/10 11:21:34;;;;;;;10.43;8.30;;;15.70;89.30;;;;;;5055368;28;20091;-75
2023/04/10 11:24:00;;;;;;;11.10;9.77;;;15.70;86.30;;;;;;5055357;28;20049;-76
2023/04/10 11:26:38;;;;;;;10.13;8.85;;;15.60;87.10;;;;;;5054918;28;20156;-79
2023/04/10 11:29:11;;;;;;;10.25;8.43;;;15.50;87.20;;;;;;5026572;28;20432;-74
2023/04/10 11:31:37;;;;;;;10.30;7.70;;;15.60;90.00;;;;;;5056368;28;20127;-73
2023/04/10 11:34:09;;;;;;;10.07;7.88;;;15.70;88.10;;;;;;5038125;28;20041;-74
2023/04/10 11:36:39;;;;;;;8.75;7.85;;;15.80;87.30;;;;;;5055548;28;20056;-74
2023/04/10 11:39:09;;;;;;;9.80;7.35;;;15.90;83.60;;;;;;5055864;28;20033;-74
2023/04/10 11:41:37;;;;;;;12.75;7.78;;;15.90;84.40;;;;;;5054621;28;20263;-74
2023/04/10 11:44:11;;;;;;;11.80;7.57;;;15.90;83.40;;;;;;5056595;28;20041;-74
2023/04/10 11:46:39;;;;;;;9.60;7.13;;;15.90;83.70;;;;;;5052149;28;20474;-74
2023/04/10 11:49:10;;;;;;;8.18;7.38;;;15.90;87.10;;;;;;5057320;28;20048;-73
2023/04/10 11:51:37;;;;;;;12.52;7.40;;;15.90;84.30;;;;;;5071399;28;20123;-74
2023/04/10 11:54:14;;;;;;;11.52;7.57;;;15.90;85.20;;;;;;5055015;28;20041;-73
2023/04/10 11:56:41;;;;;;;11.88;6.32;;;15.90;84.00;;;;;;5055876;28;20049;-73
2023/04/10 11:59:12;;;;;;;11.98;6.65;;;15.90;82.20;;;;;;5058381;28;20072;-73
2023/04/10 12:01:41;;;;;;;9.45;6.00;;;15.90;80.40;;;;;;5060258;28;20079;-74
2023/04/10 12:04:18;;;;;;;9.10;5.68;;;15.90;77.70;;;;;;5031811;28;20521;-73
2023/04/10 12:06:52;;;;;;;7.38;5.43;;;16.00;76.00;;;;;;5054843;28;20232;-74
2023/04/10 12:09:20;;;;;;;19.58;6.10;;;16.00;77.60;;;;;;5054630;28;20048;-74
2023/04/10 12:11:58;;;;;;;6.07;5.35;;;16.00;76.00;;;;;;5055592;28;20048;-74
2023/04/10 12:14:37;;;;;;;8.27;5.55;;;16.10;76.60;;;;;;5039985;28;20048;-73
2023/04/10 12:17:04;;;;;;;9.70;5.78;;;16.30;77.50;;;;;;5055647;28;20110;-74
2023/04/10 12:19:31;;;;;;;10.57;5.25;;;16.40;76.90;;;;;;5056881;28;20041;-74
2023/04/10 12:21:58;;;;;;;5.88;5.25;;;16.60;76.60;;;;;;5053667;28;20041;-73
2023/04/10 12:24:44;;;;;;;11.95;5.97;;;16.70;76.60;;;;;;5055684;28;20045;-73
2023/04/10 12:27:22;;;;;;;9.23;5.70;;;16.90;75.30;;;;;;5043168;28;20055;-73
2023/04/10 12:29:50;;;;;;;14.65;5.70;;;17.10;74.90;;;;;;5061508;28;20051;-73
2023/04/10 12:32:16;;;;;;;10.20;5.43;;;17.10;74.50;;;;;;5055166;28;20121;-73
2023/04/10 12:34:52;;;;;;;13.15;5.75;;;17.10;73.10;;;;;;5053569;28;20048;-73
2023/04/10 12:37:19;;;;;;;8.15;5.40;;;17.20;73.00;;;;;;5054260;28;20423;-73
2023/04/10 12:39:45;;;;;;;9.80;5.70;;;17.30;74.00;;;;;;5054003;28;20064;-73
2023/04/10 12:42:16;;;;;;;10.43;5.60;;;17.40;74.00;;;;;;5055907;28;20033;-73